Flight Track Log - Related Links

Times and Time Zones

All times are in EDT time to prevent confusion due to time zone crossing. See the FLG4048 flight status page for this flight to view local times or setup timezone preferences in your user account.

Time Position Orientation Groundspeed Altitude Reporting Facility
EDT Latitude Longitude Course Direction KTS MPH feet Rate Location/Type
Fri 08:12:45 PM 39.0500 -84.6500 360° North 158 182 1,500  Level Cincinnati TRACON
Fri 08:13:45 PM 39.1167 -84.6500 360° North 216 249 3,000 2,158 Climbing Cincinnati TRACON
Fri 08:14:39 PM 39.1833 -84.6333 11° North 287 330 5,600 2,667 Climbing Cincinnati TRACON
Fri 08:15:51 PM 39.2022 -84.5458 74° East 292 336 8,600 2,301 Climbing Indianapolis Center
Fri 08:16:52 PM 39.2011 -84.4367 91° East 300 345 10,700 2,146 Climbing Indianapolis Center
Fri 08:17:54 PM 39.1975 -84.2828 92° East 354 407 13,000 2,468 Climbing Indianapolis Center
Fri 08:18:56 PM 39.1958 -84.1497 91° East 367 422 15,800 2,293 Climbing Indianapolis Center
Fri 08:19:57 PM 39.1925 -84.0139 92° East 375 432 17,700 1,610 Climbing Indianapolis Center
Fri 08:20:59 PM 39.2261 -83.8792 72° East 405 466 19,100 1,355 Climbing Indianapolis Center
Fri 08:22:01 PM 39.2781 -83.7400 64° Northeast 419 482 20,500 1,415 Climbing Indianapolis Center
Fri 08:23:02 PM 39.3331 -83.5975 63° Northeast 439 505 22,000 1,610 Climbing Indianapolis Center
Fri 08:24:04 PM 39.4000 -83.4181 64° Northeast 460 529 23,800 1,610 Climbing Indianapolis Center
Fri 08:25:05 PM 39.4567 -83.2653 64° Northeast 470 541 25,300 1,463 Climbing Indianapolis Center
Fri 08:26:07 PM 39.5122 -83.0933 67° East 489 563 26,800 1,268 Climbing Indianapolis Center
Fri 08:27:08 PM 39.5583 -82.9383 69° East 492 566 27,900 976 Climbing Indianapolis Center
Fri 08:28:10 PM 39.6097 -82.7667 69° East 506 582 28,800 878 Climbing Indianapolis Center
Fri 08:29:11 PM 39.6625 -82.5889 69° East 523 602 29,700 878 Climbing Indianapolis Center
Fri 08:30:13 PM 39.7167 -82.4072 69° East 534 615 30,600 976 Climbing Indianapolis Center
Fri 08:31:14 PM 39.7819 -82.1856 69° East 544 626 31,700 1,024 Climbing Indianapolis Center
Fri 08:32:16 PM 39.8372 -81.9989 69° East 550 633 32,700 1,073 Climbing Indianapolis Center
Fri 08:33:17 PM 39.8914 -81.8133 69° East 551 634 33,900 1,171 Climbing Indianapolis Center
Fri 08:34:19 PM 39.9439 -81.6292 70° East 549 632 35,100 1,122 Climbing Indianapolis Center
Fri 08:35:20 PM 39.9939 -81.4539 70° East 541 623 36,200 634 Climbing Indianapolis Center
Fri 08:36:22 PM 40.0558 -81.2375 69° East 541 623 36,400 390 Climbing Indianapolis Center
Fri 08:37:23 PM 40.1083 -81.0500 70° East 542 624 37,000 321 Climbing Indianapolis Center
Fri 08:38:14 PM 40.1475 -80.9097 70° East 549 632 37,000  Level Cleveland Center
Fri 08:39:15 PM 40.2011 -80.7136 70° East 570 656 37,000  Level Cleveland Center
Fri 08:40:17 PM 40.2569 -80.5131 70° East 586 674 37,000  Level Cleveland Center
Fri 08:41:19 PM 40.3214 -80.2772 70° East 583 671 37,000  Level Cleveland Center
Fri 08:42:21 PM 40.3736 -80.0783 71° East 571 657 37,000  Level Cleveland Center
Fri 08:43:23 PM 40.4225 -79.9019 70° East 571 657 37,000  Level Cleveland Center
Fri 08:44:24 PM 40.4736 -79.7083 71° East 568 654 37,000  Level Cleveland Center
Fri 08:45:26 PM 40.5350 -79.4742 71° East 567 652 37,000  Level Cleveland Center
Fri 08:46:28 PM 40.5875 -79.2786 70° East 567 652 37,000  Level Cleveland Center
Fri 08:47:29 PM 40.6372 -79.0828 71° East 567 652 37,000  Level Cleveland Center
Fri 08:48:31 PM 40.6919 -78.8775 71° East 563 648 37,000  Level Cleveland Center
Fri 08:49:33 PM 40.7417 -78.6864 71° East 557 641 37,000  Level Cleveland Center
Fri 08:50:34 PM 40.7917 -78.4914 71° East 569 655 37,000  Level Cleveland Center
Fri 08:51:36 PM 40.8386 -78.2997 72° East 571 657 37,000  Level Cleveland Center
Fri 08:52:38 PM 40.8981 -78.0628 72° East 571 657 37,000  Level Cleveland Center
Fri 08:53:39 PM 40.9664 -77.8753 64° Northeast 571 657 37,000  Level Cleveland Center
Fri 08:54:26 PM 41.0347 -77.7200 60° Northeast 568 654 37,000  Level New York Center
Fri 08:55:26 PM 41.1111 -77.5514 59° Northeast 576 663 37,000  Level New York Center
Fri 08:56:26 PM 41.1994 -77.3506 60° Northeast 576 663 37,000  Level New York Center
Fri 08:57:26 PM 41.2708 -77.1892 59° Northeast 570 656 37,000  Level New York Center
Fri 08:58:26 PM 41.3536 -77.0036 59° Northeast 570 656 37,000  Level New York Center
Fri 08:59:26 PM 41.4342 -76.8172 60° Northeast 570 656 37,000 -150 Level New York Center
Fri 09:00:26 PM 41.5142 -76.6306 60° Northeast 570 656 36,700 -1,000 Descending New York Center
Fri 09:01:26 PM 41.5942 -76.4461 60° Northeast 570 656 35,000 -1,650 Descending New York Center
Fri 09:02:26 PM 41.6761 -76.2503 61° Northeast 564 649 33,400 -1,600 Descending New York Center
Fri 09:03:26 PM 41.7486 -76.0783 60° Northeast 544 626 31,800 -1,094 Descending New York Center
Fri 09:05:27 PM 41.8894 -75.7417 61° Northeast 534 615 30,100 -1,121 Descending Boston Center
Fri 09:06:28 PM 41.9622 -75.5656 61° Northeast 537 618 28,400 -1,645 Descending Boston Center
Fri 09:07:31 PM 42.0325 -75.3897 62° Northeast 537 618 26,700 -1,645 Descending Boston Center
Fri 09:08:32 PM 42.1133 -75.2383 54° Northeast 507 583 25,000 -1,686 Descending Boston Center
Fri 09:09:32 PM 42.1994 -75.1053 49° Northeast 482 555 23,300 -1,672 Descending Boston Center
Fri 09:10:34 PM 42.2842 -74.9731 49° Northeast 473 544 21,600 -1,659 Descending Boston Center
Fri 09:11:35 PM 42.3650 -74.8439 50° Northeast 457 526 19,900 -1,765 Descending Boston Center
Fri 09:12:33 PM 42.4575 -74.6994 49° Northeast 435 501 18,100 -934 Descending Boston Center
Fri 09:13:37 PM 42.4800 -74.5436 79° East 437 503 18,000 -48 Descending Boston Center
Fri 09:14:37 PM 42.4825 -74.3789 89° East 438 504 18,000  Level Boston Center
Fri 09:15:36 PM 42.4819 -74.2006 90° East 441 507 18,000  Level Boston Center
Fri 09:16:39 PM 42.4511 -74.0397 105° East 446 513 18,000  Level Boston Center
Fri 09:17:38 PM 42.4203 -73.8806 105° East 443 510 18,000  Level Boston Center
Fri 09:18:39 PM 42.3911 -73.7253 104° East 431 496 18,000 -245 Level Boston Center
Fri 09:19:16 PM 42.3744 -73.6300 103° East 427 491 17,600 -1,397 Descending Boston Center
Fri 09:19:52 PM 42.3550 -73.5350 105° East 425 489 16,300 -1,931 Descending Boston Center
Fri 09:20:43 PM 42.3364 -73.4333 104° East 420 483 14,800 -2,000 Descending Boston Center
Fri 09:20:52 PM 42.3275 -73.3850 104° East 415 478 14,300 -2,200 Descending Boston Center
Fri 09:21:43 PM 42.3039 -73.2597 104° East 413 475 12,600 -2,000 Descending Boston Center
Fri 09:21:55 PM 42.2950 -73.2272 110° East 406 467 12,200 -1,574 Descending Boston Center
Fri 09:22:44 PM 42.2783 -73.1164 101° East 393 452 11,000 -1,475 Descending Boston Center
Fri 09:22:56 PM 42.2722 -73.0847 105° East 384 442 10,700 -1,672 Descending Boston Center
Fri 09:23:45 PM 42.2589 -72.9861 100° East 356 410 9,300 -1,745 Descending Boston Center
Fri 09:23:51 PM 42.2547 -72.9681 107° East 337 388 9,100 -1,909 Descending Boston Center
Fri 09:24:51 PM 42.2367 -72.8422 101° East 333 383 7,200 -1,835 Descending Boston Center
Fri 09:25:52 PM 42.2172 -72.7247 103° East 308 354 5,400 -1,655 Descending Boston Center
Fri 09:26:47 PM 42.2033 -72.6244 101° East 303 349 4,000 -1,448 Descending Boston Center
Fri 09:26:50 PM 42.2017 -72.6178 109° East 291 335 4,000 -1,180 Level Boston Center
Fri 09:27:48 PM 42.1650 -72.5392 122° Southeast 269 310 2,800 -1,279 Descending Boston Center
Fri 09:27:51 PM 42.1603 -72.5333 138° Southeast 258 297 2,700 -300 Descending Boston Center
Fri 09:28:48 PM 42.1183 -72.4903 143° Southeast 219 252 2,500 -200 Descending Boston Center
Fri 09:28:51 PM 42.1147 -72.4908 187° South 189 217 2,500  Level Boston Center
Fri 09:29:50 PM 42.0775 -72.5033 194° South 157 181 2,500  Level Boston Center
Fri 09:29:53 PM 42.0753 -72.5058 220° Southwest 134 154 2,500  Level Boston Center
Fri 09:30:52 PM 42.0478 -72.5447 226° Southwest 147 169 2,500  Level Boston Center
Fri 09:30:55 PM 42.0458 -72.5444 174° South 139 160 2,500 -105 Level Boston Center
Fri 09:31:49 PM 42.0247 -72.5747 227° Southwest 127 146 2,400 -103 Descending Boston Center
Fri 09:31:53 PM 42.0233 -72.5764 222° Southwest 126 145 2,400 -646 Level Boston Center
Fri 09:32:54 PM 42.0033 -72.6033 225° Southwest 109 125 1,700 -610 Descending Boston Center
Fri 09:33:51 PM 41.9817 -72.6286 221° Southwest 105 121 1,200 -600 Descending Boston Center
Fri 09:33:54 PM 41.9817 -72.6314 270° West 105 121 1,100 -656 Descending Boston Center
Fri 09:34:55 PM 41.9589 -72.6614 224° Southwest 111 128 500 -443 Descending Boston Center
Fri 09:35:56 PM 41.9342 -72.6939 224° Southwest 118 136 200 -295 Descending Boston Center

Login

Don't have an account? Register now (free) for customized features, flight alerts, and more!